Back to Top

Language: 

My Weather Underground Personal Weather Station Historical Data with Graphs...

Delerius Weather Station Historical Data
Daily Summary for December 27, 2016 Units:  Metric    English   Both
« Previous Day
Next Day »
Daily Weekly Monthly Yearly Custom
  High: Low: Average:
Temperature: 7.6 °C -2.1 °C 3.3 °C
Dew Point: 4.5 °C -2.9 °C 1.7 °C
Humidity: 96 % 76 % 89 %
Wind Speed: 17.7 km/h 0 km/h 3.4 km/h
Wind Gust: 30.6 km/h - -
Wind:- - West
Pressure: 1043.9 hPa 1037.8 hPa -
Precipitation: 0 mm    
Historical Graphs
 
 
Tabular Data for December 27, 2016
Time Temperature Dew Point Pressure Wind Wind Speed Wind Gust Humidity Rainfall Rate (Hourly) solar Conditions
00:00 6 °C 3.5 °C 1037.8 hPa West 17.7 km/h 17.7 km/h 84 % 0 mm 0 W/m2
00:05 6.1 °C 3.6 °C 1037.8 hPa West 16.1 km/h 17.7 km/h 84 % 0 mm 0 W/m2
00:15 6 °C 3.5 °C 1037.8 hPa SW 11.3 km/h 14.5 km/h 84 % 0 mm 0 W/m2
00:20 6.1 °C 3.6 °C 1038.1 hPa WSW 12.9 km/h 14.5 km/h 84 % 0 mm 0 W/m2
00:25 6.1 °C 3.6 °C 1038.1 hPa West 12.9 km/h 14.5 km/h 84 % 0 mm 0 W/m2
00:30 6.1 °C 3.6 °C 1038.1 hPa West 12.9 km/h 12.9 km/h 84 % 0 mm 0 W/m2
00:35 6.1 °C 3.6 °C 1038.1 hPa WNW 12.9 km/h 12.9 km/h 84 % 0 mm 0 W/m2
00:45 6.1 °C 3.6 °C 1038.1 hPa West 9.7 km/h 14.5 km/h 84 % 0 mm 0 W/m2
00:50 6.1 °C 3.7 °C 1038.1 hPa WNW 12.9 km/h 20.9 km/h 85 % 0 mm 0 W/m2
00:55 6.1 °C 3.7 °C 1037.8 hPa WNW 14.5 km/h 20.9 km/h 85 % 0 mm 0 W/m2
01:00 6 °C 3.7 °C 1038.1 hPa West 14.5 km/h 14.5 km/h 85 % 0 mm 0 W/m2
01:05 5.9 °C 3.6 °C 1038.1 hPa WNW 12.9 km/h 30.6 km/h 85 % 0 mm 0 W/m2
01:15 5.8 °C 3.4 °C 1038.5 hPa WNW 12.9 km/h 30.6 km/h 85 % 0 mm 0 W/m2
01:20 5.7 °C 3.6 °C 1038.5 hPa WSW 11.3 km/h 11.3 km/h 86 % 0 mm 0 W/m2
01:25 5.6 °C 3.4 °C 1038.5 hPa West 11.3 km/h 30.6 km/h 86 % 0 mm 0 W/m2
01:30 5.6 °C 3.4 °C 1038.5 hPa West 11.3 km/h 11.3 km/h 86 % 0 mm 0 W/m2
01:35 5.5 °C 3.3 °C 1038.5 hPa WSW 9.7 km/h 30.6 km/h 86 % 0 mm 0 W/m2
01:40 5.4 °C 3.2 °C 1038.8 hPa West 8 km/h 30.6 km/h 86 % 0 mm 0 W/m2
01:50 5.3 °C 3.3 °C 1038.8 hPa West 8 km/h 8 km/h 87 % 0 mm 0 W/m2
01:55 5.2 °C 3.2 °C 1038.8 hPa West 6.4 km/h 9.7 km/h 87 % 0 mm 0 W/m2
02:00 5.1 °C 3.1 °C 1038.8 hPa West 8 km/h 8 km/h 87 % 0 mm 0 W/m2
02:05 4.9 °C 2.9 °C 1038.8 hPa West 6.4 km/h 30.6 km/h 87 % 0 mm 0 W/m2
02:10 4.8 °C 2.8 °C 1039.2 hPa West 6.4 km/h 30.6 km/h 87 % 0 mm 0 W/m2
02:20 4.7 °C 2.8 °C 1038.8 hPa West 9.7 km/h 30.6 km/h 88 % 0 mm 0 W/m2
02:25 4.6 °C 2.7 °C 1038.8 hPa West 11.3 km/h 30.6 km/h 88 % 0 mm 0 W/m2
02:30 4.6 °C 2.9 °C 1039.2 hPa West 11.3 km/h 11.3 km/h 89 % 0 mm 0 W/m2
02:35 4.5 °C 2.8 °C 1039.2 hPa West 9.7 km/h 30.6 km/h 89 % 0 mm 0 W/m2
02:40 4.4 °C 2.7 °C 1039.2 hPa West 8 km/h 30.6 km/h 89 % 0 mm 0 W/m2
02:45 4.3 °C 2.7 °C 1039.2 hPa West 8 km/h 30.6 km/h 89 % 0 mm 0 W/m2
02:55 4.3 °C 2.8 °C 1039.2 hPa WNW 12.9 km/h 12.9 km/h 90 % 0 mm 0 W/m2
03:00 4.4 °C 2.9 °C 1039.2 hPa West 12.9 km/h 30.6 km/h 90 % 0 mm 0 W/m2
03:05 4.4 °C 2.9 °C 1039.2 hPa West 11.3 km/h 30.6 km/h 90 % 0 mm 0 W/m2
03:10 4.4 °C 2.9 °C 1039.5 hPa West 9.7 km/h 9.7 km/h 90 % 0 mm 0 W/m2
03:15 4.4 °C 2.9 °C 1039.2 hPa West 9.7 km/h 30.6 km/h 90 % 0 mm 0 W/m2
03:20 4.4 °C 2.9 °C 1039.2 hPa WNW 8 km/h 8 km/h 90 % 0 mm 0 W/m2
03:25 4.3 °C 2.8 °C 1039.2 hPa WNW 8 km/h 30.6 km/h 90 % 0 mm 0 W/m2
03:35 4.2 °C 2.7 °C 1039.2 hPa NW 6.4 km/h 30.6 km/h 90 % 0 mm 0 W/m2
03:40 4.3 °C 2.9 °C 1039.2 hPa NW 8 km/h 30.6 km/h 91 % 0 mm 0 W/m2
03:45 4.4 °C 3.1 °C 1039.2 hPa NW 6.4 km/h 30.6 km/h 91 % 0 mm 0 W/m2
03:50 4.6 °C 3.4 °C 1039.2 hPa WNW 8 km/h 30.6 km/h 92 % 0 mm 0 W/m2
04:00 4.8 °C 3.4 °C 1039.2 hPa WNW 3.2 km/h 30.6 km/h 91 % 0 mm 0 W/m2
04:05 4.8 °C 3.5 °C 1039.2 hPa WNW 6.4 km/h 30.6 km/h 91 % 0 mm 0 W/m2
04:10 5 °C 3.7 °C 1039.5 hPa West 11.3 km/h 11.3 km/h 91 % 0 mm 0 W/m2
04:15 5.1 °C 3.6 °C 1039.2 hPa West 11.3 km/h 30.6 km/h 90 % 0 mm 0 W/m2
04:20 5.1 °C 3.6 °C 1039.2 hPa NW 8 km/h 8 km/h 90 % 0 mm 0 W/m2
04:30 5.1 °C 3.6 °C 1039.5 hPa WNW 11.3 km/h 11.3 km/h 90 % 0 mm 0 W/m2
04:35 5.1 °C 3.6 °C 1039.5 hPa WNW 11.3 km/h 30.6 km/h 90 % 0 mm 0 W/m2
04:40 5.1 °C 3.6 °C 1039.5 hPa WNW 9.7 km/h 9.7 km/h 90 % 0 mm 0 W/m2
04:45 5.1 °C 3.6 °C 1039.5 hPa WNW 9.7 km/h 12.9 km/h 90 % 0 mm 0 W/m2
04:50 5.1 °C 3.6 °C 1039.5 hPa WNW 8 km/h 30.6 km/h 90 % 0 mm 0 W/m2
04:55 4.9 °C 3.4 °C 1039.5 hPa WNW 8 km/h 30.6 km/h 90 % 0 mm 0 W/m2
05:05 4.9 °C 3.4 °C 1039.8 hPa WNW 8 km/h 30.6 km/h 90 % 0 mm 0 W/m2
05:10 4.8 °C 3.3 °C 1039.8 hPa West 8 km/h 30.6 km/h 90 % 0 mm 0 W/m2
05:15 4.8 °C 3.3 °C 1039.8 hPa West 8 km/h 30.6 km/h 90 % 0 mm 0 W/m2
05:20 4.7 °C 3.2 °C 1039.8 hPa WNW 8 km/h 8 km/h 90 % 0 mm 0 W/m2
05:25 4.7 °C 3.2 °C 1040.2 hPa WNW 8 km/h 30.6 km/h 90 % 0 mm 0 W/m2
05:35 4.4 °C 2.9 °C 1040.2 hPa Calm   30.6 km/h 90 % 0 mm 0 W/m2
05:40 4.2 °C 2.7 °C 1040.2 hPa Calm   30.6 km/h 90 % 0 mm 0 W/m2
05:45 4.1 °C 2.6 °C 1040.2 hPa WNW 1.6 km/h 30.6 km/h 90 % 0 mm 0 W/m2
05:50 3.9 °C 2.4 °C 1040.2 hPa WNW 4.8 km/h 4.8 km/h 90 % 0 mm 0 W/m2
06:00 3.6 °C 2.1 °C 1040.2 hPa WNW 1.6 km/h 1.6 km/h 90 % 0 mm 0 W/m2
06:05 3.4 °C 2.1 °C 1040.2 hPa WNW 3.2 km/h 3.2 km/h 91 % 0 mm 0 W/m2
06:10 3.3 °C 2 °C 1040.2 hPa WNW 3.2 km/h 30.6 km/h 91 % 0 mm 0 W/m2
06:20 3.3 °C 2.2 °C 1040.2 hPa WNW 1.6 km/h 30.6 km/h 92 % 0 mm 0 W/m2
06:25 3.3 °C 2.3 °C 1040.2 hPa WNW 3.2 km/h 30.6 km/h 93 % 0 mm 0 W/m2
06:30 3.5 °C 2.5 °C 1040.2 hPa WNW 4.8 km/h 30.6 km/h 93 % 0 mm 0 W/m2
06:35 3.6 °C 2.6 °C 1040.2 hPa WNW 4.8 km/h 30.6 km/h 93 % 0 mm 0 W/m2
06:40 3.6 °C 2.6 °C 1040.2 hPa WNW 3.2 km/h 3.2 km/h 93 % 0 mm 0 W/m2
06:45 3.7 °C 2.7 °C 1040.2 hPa WNW 1.6 km/h 30.6 km/h 93 % 0 mm 0 W/m2
06:50 3.5 °C 2.3 °C 1040.2 hPa Calm   30.6 km/h 92 % 0 mm 0 W/m2
06:55 3.2 °C 1.8 °C 1040.2 hPa Calm   30.6 km/h 91 % 0 mm 0 W/m2
07:00 3 °C 1.8 °C 1040.2 hPa WNW 1.6 km/h 30.6 km/h 92 % 0 mm 0 W/m2
07:10 2.7 °C 1.5 °C 1040.2 hPa Calm   30.6 km/h 92 % 0 mm 0 W/m2
07:15 2.4 °C 1.3 °C 1040.2 hPa Calm   30.6 km/h 92 % 0 mm 0 W/m2
07:20 2.4 °C 1.4 °C 1040.5 hPa Calm   30.6 km/h 93 % 0 mm 0 W/m2
07:25 2.4 °C 1.4 °C 1040.5 hPa Calm   30.6 km/h 93 % 0 mm 0 W/m2
07:30 2.3 °C 1.3 °C 1040.5 hPa Calm   30.6 km/h 93 % 0 mm 0 W/m2
07:35 2.3 °C 1.3 °C 1040.5 hPa Calm   30.6 km/h 93 % 0 mm 0 W/m2
07:40 2.3 °C 1.4 °C 1040.5 hPa Calm   30.6 km/h 94 % 0 mm 0 W/m2
07:50 2.3 °C 1.4 °C 1040.5 hPa Calm   30.6 km/h 94 % 0 mm 0 W/m2
07:55 2.4 °C 1.5 °C 1040.5 hPa Calm   30.6 km/h 94 % 0 mm 0 W/m2
08:00 2.3 °C 1.4 °C 1040.9 hPa Calm   30.6 km/h 94 % 0 mm 0 W/m2
08:05 2.2 °C 1.2 °C 1040.5 hPa Calm   30.6 km/h 93 % 0 mm 0 W/m2
08:10 2.1 °C 1.2 °C 1040.5 hPa WNW 1.6 km/h 30.6 km/h 94 % 0 mm 0 W/m2
08:20 2.4 °C 1.7 °C 1040.9 hPa Calm   30.6 km/h 95 % 0 mm 5 W/m2
08:25 2.2 °C 1.3 °C 1040.9 hPa WNW 1.6 km/h 30.6 km/h 94 % 0 mm 7 W/m2
08:30 1.9 °C 1.1 °C 1041.2 hPa WNW 3.2 km/h 30.6 km/h 94 % 0 mm 9 W/m2
08:35 1.9 °C 1 °C 1041.2 hPa WNW 3.2 km/h 30.6 km/h 94 % 0 mm 11 W/m2
08:40 1.8 °C 0.9 °C 1041.2 hPa Calm   30.6 km/h 94 % 0 mm 12 W/m2
08:50 2 °C 1.3 °C 1041.2 hPa Calm   30.6 km/h 95 % 0 mm 18 W/m2
09:00 2 °C 1.3 °C 1041.2 hPa Calm   30.6 km/h 95 % 0 mm 19 W/m2
09:05 1.9 °C 1.2 °C 1041.5 hPa Calm   30.6 km/h 95 % 0 mm 25 W/m2
09:10 1.8 °C 1.1 °C 1041.5 hPa Calm   30.6 km/h 95 % 0 mm 28 W/m2
09:15 1.8 °C 1.1 °C 1041.5 hPa Calm   30.6 km/h 95 % 0 mm 28 W/m2
09:20 1.9 °C 1.2 °C 1041.5 hPa Calm   30.6 km/h 95 % 0 mm 32 W/m2
09:25 2.1 °C 1.3 °C 1041.5 hPa Calm   30.6 km/h 95 % 0 mm 33 W/m2
09:35 2.1 °C 1.4 °C 1041.5 hPa Calm   30.6 km/h 95 % 0 mm 79 W/m2
09:40 2.2 °C 1.5 °C 1041.5 hPa Calm   30.6 km/h 95 % 0 mm 86 W/m2
09:45 2.4 °C 1.9 °C 1041.5 hPa Calm   30.6 km/h 96 % 0 mm 79 W/m2
09:50 2.7 °C 2.1 °C 1041.9 hPa Calm   30.6 km/h 96 % 0 mm 128 W/m2
10:00 3.2 °C 2.6 °C 1041.9 hPa Calm   30.6 km/h 96 % 0 mm 148 W/m2
10:05 3.4 °C 2.9 °C 1041.9 hPa Calm   30.6 km/h 96 % 0 mm 158 W/m2
10:10 3.7 °C 3.1 °C 1041.9 hPa Calm   30.6 km/h 96 % 0 mm 156 W/m2
10:15 4 °C 3.4 °C 1041.9 hPa Calm   30.6 km/h 96 % 0 mm 113 W/m2
10:20 4.2 °C 3.7 °C 1041.9 hPa Calm   30.6 km/h 96 % 0 mm 114 W/m2
10:30 4.5 °C 3.8 °C 1042.2 hPa WNW 1.6 km/h 1.6 km/h 95 % 0 mm 116 W/m2
10:35 4.6 °C 3.8 °C 1042.2 hPa West 1.6 km/h 30.6 km/h 95 % 0 mm 113 W/m2
10:40 4.7 °C 3.8 °C 1042.2 hPa Calm   30.6 km/h 94 % 0 mm 128 W/m2
10:45 4.8 °C 3.9 °C 1042.2 hPa Calm   30.6 km/h 94 % 0 mm 109 W/m2
10:50 4.9 °C 4 °C 1042.2 hPa Calm   30.6 km/h 94 % 0 mm 113 W/m2
10:55 5.1 °C 4.2 °C 1042.2 hPa Calm   30.6 km/h 94 % 0 mm 128 W/m2
11:05 5.3 °C 4.3 °C 1042.2 hPa Calm   30.6 km/h 93 % 0 mm 127 W/m2
11:10 5.4 °C 4.2 °C 1042.5 hPa Calm   30.6 km/h 92 % 0 mm 132 W/m2
11:15 5.5 °C 4.3 °C 1042.5 hPa Calm   30.6 km/h 92 % 0 mm 118 W/m2
11:20 5.6 °C 4.2 °C 1042.5 hPa WNW 1.6 km/h 30.6 km/h 91 % 0 mm 105 W/m2
11:25 5.6 °C 4.1 °C 1042.5 hPa WNW 1.6 km/h 30.6 km/h 90 % 0 mm 128 W/m2
11:35 5.9 °C 4.4 °C 1042.5 hPa Calm   30.6 km/h 90 % 0 mm 183 W/m2
11:40 6.1 °C 4.4 °C 1042.5 hPa Calm   30.6 km/h 89 % 0 mm 174 W/m2
11:45 6.3 °C 4.5 °C 1042.5 hPa Calm   30.6 km/h 88 % 0 mm 181 W/m2
11:50 6.4 °C 4.4 °C 1042.5 hPa WNW 1.6 km/h 30.6 km/h 87 % 0 mm 183 W/m2
11:55 6.5 °C 4.2 °C 1042.5 hPa WNW 3.2 km/h 30.6 km/h 85 % 0 mm 160 W/m2
12:00 6.6 °C 4.2 °C 1042.5 hPa WNW 1.6 km/h 30.6 km/h 85 % 0 mm 142 W/m2
12:10 6.6 °C 3.9 °C 1042.5 hPa West 3.2 km/h 3.2 km/h 83 % 0 mm 148 W/m2
12:15 6.6 °C 3.7 °C 1042.5 hPa West 1.6 km/h 30.6 km/h 82 % 0 mm 139 W/m2
12:20 6.7 °C 3.8 °C 1042.5 hPa West 1.6 km/h 30.6 km/h 82 % 0 mm 137 W/m2
12:25 6.7 °C 3.7 °C 1042.5 hPa West 4.8 km/h 30.6 km/h 81 % 0 mm 139 W/m2
12:30 6.8 °C 3.7 °C 1042.5 hPa WNW 6.4 km/h 6.4 km/h 81 % 0 mm 137 W/m2
12:40 6.9 °C 3.7 °C 1042.5 hPa West 4.8 km/h 30.6 km/h 80 % 0 mm 183 W/m2
12:45 7.1 °C 3.8 °C 1042.5 hPa West 4.8 km/h 30.6 km/h 80 % 0 mm 206 W/m2
12:50 7.3 °C 4.1 °C 1042.9 hPa West 4.8 km/h 4.8 km/h 80 % 0 mm 163 W/m2
13:00 7.5 °C 3.9 °C 1042.5 hPa West 3.2 km/h 30.6 km/h 78 % 0 mm 141 W/m2
13:05 7.4 °C 3.8 °C 1042.9 hPa WSW 4.8 km/h 30.6 km/h 78 % 0 mm 151 W/m2
13:10 7.3 °C 3.6 °C 1042.5 hPa WSW 8 km/h 8 km/h 77 % 0 mm 156 W/m2
13:20 7.3 °C 3.6 °C 1042.9 hPa WSW 8 km/h 30.6 km/h 77 % 0 mm 176 W/m2
13:25 7.4 °C 3.7 °C 1042.5 hPa West 8 km/h 30.6 km/h 77 % 0 mm 169 W/m2
13:30 7.6 °C 3.6 °C 1042.9 hPa West 8 km/h 30.6 km/h 76 % 0 mm 134 W/m2
13:35 7.6 °C 3.6 °C 1042.9 hPa SW 8 km/h 30.6 km/h 76 % 0 mm 121 W/m2
13:40 7.4 °C 3.5 °C 1042.9 hPa SW 9.7 km/h 9.7 km/h 76 % 0 mm 121 W/m2
13:50 7.3 °C 3.4 °C 1042.9 hPa West 8 km/h 8 km/h 76 % 0 mm 105 W/m2
13:55 7.3 °C 3.4 °C 1042.9 hPa West 6.4 km/h 9.7 km/h 76 % 0 mm 102 W/m2
14:00 7.3 °C 3.3 °C 1042.9 hPa West 6.4 km/h 6.4 km/h 76 % 0 mm 98 W/m2
14:05 7.2 °C 3.3 °C 1042.9 hPa West 4.8 km/h 30.6 km/h 76 % 0 mm 91 W/m2
14:10 7.2 °C 3.3 °C 1042.9 hPa West 4.8 km/h 4.8 km/h 76 % 0 mm 81 W/m2
14:20 7.1 °C 3.3 °C 1042.9 hPa West 3.2 km/h 30.6 km/h 77 % 0 mm 65 W/m2
14:25 7 °C 3.2 °C 1042.9 hPa West 3.2 km/h 30.6 km/h 77 % 0 mm 60 W/m2
14:30 6.9 °C 3.1 °C 1042.9 hPa SW 4.8 km/h 30.6 km/h 77 % 0 mm 53 W/m2
14:35 6.8 °C 3.2 °C 1042.9 hPa SW 4.8 km/h 30.6 km/h 78 % 0 mm 46 W/m2
14:40 6.7 °C 3.1 °C 1042.9 hPa SW 4.8 km/h 30.6 km/h 78 % 0 mm 42 W/m2
14:45 6.6 °C 3 °C 1042.9 hPa SW 3.2 km/h 30.6 km/h 78 % 0 mm 37 W/m2
14:55 6.3 °C 2.9 °C 1042.9 hPa SW 1.6 km/h 30.6 km/h 79 % 0 mm 28 W/m2
15:00 6.2 °C 2.8 °C 1042.9 hPa SW 3.2 km/h 3.2 km/h 79 % 0 mm 26 W/m2
15:05 6.1 °C 2.9 °C 1042.9 hPa SW 4.8 km/h 8 km/h 80 % 0 mm 23 W/m2
15:10 6 °C 2.8 °C 1042.9 hPa SW 4.8 km/h 30.6 km/h 80 % 0 mm 21 W/m2
15:15 5.9 °C 2.7 °C 1042.9 hPa SW 4.8 km/h 30.6 km/h 80 % 0 mm 18 W/m2
15:25 5.7 °C 2.7 °C 1042.9 hPa Calm   30.6 km/h 81 % 0 mm 12 W/m2
15:30 5.6 °C 2.6 °C 1042.9 hPa Calm   30.6 km/h 81 % 0 mm 9 W/m2
15:35 5.4 °C 2.4 °C 1042.9 hPa Calm   30.6 km/h 81 % 0 mm 7 W/m2
15:40 5.2 °C 2.2 °C 1042.9 hPa Calm   30.6 km/h 81 % 0 mm 5 W/m2
15:45 4.9 °C 2.1 °C 1042.9 hPa Calm   30.6 km/h 82 % 0 mm 5 W/m2
15:50 4.7 °C 1.8 °C 1042.9 hPa Calm   30.6 km/h 82 % 0 mm 0 W/m2
16:00 4.3 °C 1.8 °C 1042.9 hPa Calm   30.6 km/h 84 % 0 mm 0 W/m2
16:05 4.1 °C 1.6 °C 1042.9 hPa Calm   30.6 km/h 84 % 0 mm 0 W/m2
16:10 3.9 °C 1.4 °C 1042.9 hPa SW 1.6 km/h 1.6 km/h 84 % 0 mm 0 W/m2
16:15 3.8 °C 1.5 °C 1042.9 hPa SW 1.6 km/h 30.6 km/h 85 % 0 mm 0 W/m2
16:20 3.6 °C 1.5 °C 1042.9 hPa Calm   30.6 km/h 86 % 0 mm 0 W/m2
16:30 3.3 °C 1.2 °C 1043.2 hPa Calm   30.6 km/h 86 % 0 mm 0 W/m2
16:35 3.1 °C 0.9 °C 1043.2 hPa Calm   30.6 km/h 86 % 0 mm 0 W/m2
16:40 2.8 °C 0.7 °C 1042.9 hPa Calm   30.6 km/h 86 % 0 mm 0 W/m2
16:45 2.7 °C 0.7 °C 1043.2 hPa Calm   30.6 km/h 87 % 0 mm 0 W/m2
16:50 2.6 °C 0.8 °C 1043.2 hPa Calm   30.6 km/h 88 % 0 mm 0 W/m2
16:55 2.4 °C 0.6 °C 1043.2 hPa Calm   30.6 km/h 88 % 0 mm 0 W/m2
17:05 2.1 °C 0.3 °C 1043.2 hPa Calm   30.6 km/h 88 % 0 mm 0 W/m2
17:10 1.9 °C 0.2 °C 1043.2 hPa Calm   30.6 km/h 88 % 0 mm 0 W/m2
17:15 1.8 °C 0.2 °C 1043.2 hPa Calm   30.6 km/h 89 % 0 mm 0 W/m2
17:20 1.7 °C 0.1 °C 1043.2 hPa Calm   30.6 km/h 89 % 0 mm 0 W/m2
17:25 1.6 °C 0.1 °C 1043.6 hPa Calm   30.6 km/h 90 % 0 mm 0 W/m2
17:35 1.4 °C -0.1 °C 1043.6 hPa Calm   30.6 km/h 90 % 0 mm 0 W/m2
17:40 1.3 °C -0.2 °C 1043.6 hPa Calm   30.6 km/h 90 % 0 mm 0 W/m2
17:45 1.2 °C -0.3 °C 1043.2 hPa Calm   30.6 km/h 90 % 0 mm 0 W/m2
17:50 1.1 °C -0.2 °C 1043.2 hPa Calm   30.6 km/h 91 % 0 mm 0 W/m2
17:55 1 °C -0.3 °C 1043.2 hPa Calm   30.6 km/h 91 % 0 mm 0 W/m2
18:00 0.9 °C -0.4 °C 1043.2 hPa Calm   30.6 km/h 91 % 0 mm 0 W/m2
18:05 0.8 °C -0.5 °C 1043.6 hPa Calm   30.6 km/h 91 % 0 mm 0 W/m2
18:10 0.7 °C -0.6 °C 1043.6 hPa Calm   30.6 km/h 91 % 0 mm 0 W/m2
18:20 0.6 °C -0.6 °C 1043.6 hPa Calm   30.6 km/h 92 % 0 mm 0 W/m2
18:25 0.4 °C -0.7 °C 1043.6 hPa Calm   30.6 km/h 92 % 0 mm 0 W/m2
18:30 0.4 °C -0.8 °C 1043.6 hPa Calm   30.6 km/h 92 % 0 mm 0 W/m2
18:35 0.3 °C -0.8 °C 1043.6 hPa Calm   30.6 km/h 92 % 0 mm 0 W/m2
18:45 0.2 °C -0.9 °C 1043.6 hPa Calm   30.6 km/h 92 % 0 mm 0 W/m2
18:50 0.2 °C -1 °C 1043.6 hPa Calm   30.6 km/h 92 % 0 mm 0 W/m2
18:55 0.1 °C -0.9 °C 1043.6 hPa Calm   30.6 km/h 93 % 0 mm 0 W/m2
19:00 0.1 °C -0.9 °C 1043.6 hPa Calm   30.6 km/h 93 % 0 mm 0 W/m2
19:05 0.1 °C -0.9 °C 1043.9 hPa Calm   30.6 km/h 93 % 0 mm 0 W/m2
19:15 0.1 °C -0.9 °C 1043.9 hPa Calm   30.6 km/h 93 % 0 mm 0 W/m2
19:20 0.1 °C -0.9 °C 1043.9 hPa WSW 3.2 km/h 30.6 km/h 93 % 0 mm 0 W/m2
19:25 0.2 °C -0.6 °C 1043.9 hPa WSW 3.2 km/h 30.6 km/h 94 % 0 mm 0 W/m2
19:30 0.3 °C -0.6 °C 1043.6 hPa WSW 1.6 km/h 1.6 km/h 94 % 0 mm 0 W/m2
19:40 0.3 °C -0.5 °C 1043.6 hPa Calm   30.6 km/h 94 % 0 mm 0 W/m2
19:50 0.1 °C -0.9 °C 1043.6 hPa WSW 1.6 km/h 30.6 km/h 93 % 0 mm 0 W/m2
19:55 0.2 °C -0.7 °C 1043.9 hPa WSW 1.6 km/h 30.6 km/h 94 % 0 mm 0 W/m2
20:00 0.4 °C -0.3 °C 1043.6 hPa WSW 1.6 km/h 1.6 km/h 95 % 0 mm 0 W/m2
20:05 0.6 °C -0.3 °C 1043.6 hPa Calm   30.6 km/h 94 % 0 mm 0 W/m2
20:10 0.4 °C -0.4 °C 1043.6 hPa Calm   30.6 km/h 94 % 0 mm 0 W/m2
20:20 0.1 °C -0.9 °C 1043.6 hPa Calm   30.6 km/h 93 % 0 mm 0 W/m2
20:25 -0.1 °C -1.1 °C 1043.6 hPa Calm   30.6 km/h 93 % 0 mm 0 W/m2
20:30 -0.3 °C -1.3 °C 1043.6 hPa WSW 1.6 km/h 1.6 km/h 93 % 0 mm 0 W/m2
20:35 -0.4 °C -1.4 °C 1043.6 hPa WSW 1.6 km/h 3.2 km/h 93 % 0 mm 0 W/m2
20:40 -0.5 °C -1.5 °C 1043.6 hPa WSW 1.6 km/h 1.6 km/h 93 % 0 mm 0 W/m2
20:45 -0.6 °C -1.6 °C 1043.6 hPa Calm   30.6 km/h 93 % 0 mm 0 W/m2
20:55 -0.7 °C -1.5 °C 1043.6 hPa Calm   30.6 km/h 94 % 0 mm 0 W/m2
21:00 -0.8 °C -1.8 °C 1043.6 hPa Calm   30.6 km/h 93 % 0 mm 0 W/m2
21:05 -0.9 °C -1.9 °C 1043.6 hPa WSW 1.6 km/h 30.6 km/h 93 % 0 mm 0 W/m2
21:10 -0.9 °C -1.8 °C 1043.6 hPa WSW 1.6 km/h 1.6 km/h 94 % 0 mm 0 W/m2
21:15 -1 °C -1.8 °C 1043.6 hPa WSW 1.6 km/h 30.6 km/h 94 % 0 mm 0 W/m2
21:25 -0.9 °C -1.8 °C 1043.6 hPa WSW 1.6 km/h 30.6 km/h 94 % 0 mm 0 W/m2
21:30 -0.9 °C -1.6 °C 1043.2 hPa WSW 1.6 km/h 1.6 km/h 95 % 0 mm 0 W/m2
21:35 -0.8 °C -1.6 °C 1043.2 hPa WSW 1.6 km/h 30.6 km/h 95 % 0 mm 0 W/m2
21:40 -0.8 °C -1.6 °C 1043.2 hPa Calm   30.6 km/h 95 % 0 mm 0 W/m2
21:45 -0.8 °C -1.7 °C 1043.2 hPa Calm   30.6 km/h 94 % 0 mm 0 W/m2
21:50 -0.7 °C -1.4 °C 1043.2 hPa WSW 1.6 km/h 1.6 km/h 95 % 0 mm 0 W/m2
22:00 -0.6 °C -1.3 °C 1043.2 hPa Calm   30.6 km/h 95 % 0 mm 0 W/m2
22:05 -0.7 °C -1.4 °C 1043.2 hPa Calm   30.6 km/h 95 % 0 mm 0 W/m2
22:10 -0.8 °C -1.7 °C 1043.2 hPa Calm   30.6 km/h 94 % 0 mm 0 W/m2
22:15 -0.9 °C -1.8 °C 1043.2 hPa Calm   30.6 km/h 94 % 0 mm 0 W/m2
22:20 -1 °C -1.7 °C 1043.2 hPa Calm   30.6 km/h 95 % 0 mm 0 W/m2
22:30 -1.1 °C -1.9 °C 1043.2 hPa Calm   30.6 km/h 94 % 0 mm 0 W/m2
22:35 -1.2 °C -2.1 °C 1043.2 hPa Calm   30.6 km/h 94 % 0 mm 0 W/m2
22:40 -1.3 °C -2.2 °C 1043.2 hPa WSW 1.6 km/h 30.6 km/h 94 % 0 mm 0 W/m2
22:45 -1.4 °C -2.2 °C 1043.2 hPa WSW 3.2 km/h 30.6 km/h 94 % 0 mm 0 W/m2
22:50 -1.3 °C -2.1 °C 1043.2 hPa WSW 3.2 km/h 3.2 km/h 95 % 0 mm 0 W/m2
22:55 -1.2 °C -1.9 °C 1042.9 hPa WSW 1.6 km/h 30.6 km/h 95 % 0 mm 0 W/m2
23:05 -0.9 °C -1.4 °C 1042.9 hPa WSW 3.2 km/h 30.6 km/h 96 % 0 mm 0 W/m2
23:10 -0.8 °C -1.6 °C 1042.9 hPa WSW 1.6 km/h 1.6 km/h 95 % 0 mm 0 W/m2
23:15 -0.9 °C -1.7 °C 1043.2 hPa Calm   30.6 km/h 95 % 0 mm 0 W/m2
23:20 -1.1 °C -1.8 °C 1042.9 hPa Calm   30.6 km/h 95 % 0 mm 0 W/m2
23:25 -1.3 °C -2.2 °C 1042.9 hPa Calm   30.6 km/h 94 % 0 mm 0 W/m2
23:35 -1.8 °C -2.6 °C 1042.9 hPa Calm   30.6 km/h 94 % 0 mm 0 W/m2
23:40 -1.9 °C -2.7 °C 1043.2 hPa Calm   30.6 km/h 94 % 0 mm 0 W/m2
23:45 -1.9 °C -2.8 °C 1042.9 hPa Calm   30.6 km/h 94 % 0 mm 0 W/m2
23:55 -2.1 °C -2.9 °C 1042.9 hPa Calm   30.6 km/h 94 % 0 mm 0 W/m2
Delerius-Weather
Compliments of Weather Underground - 2 mb

Data updates at regular intervals.